Latest Coastal Weather Observations for Cape Moreton

IDQ60701

Issued at 3:45 am EST Friday 25 July 2014 (issued every 10 minutes, with the page automatically refreshed every 10 minutes)

About coastal observations | Map of coastal stations | Coastal observations for QLD | Marine services | Other Formats
Station Details ID: 040043 Name: CAPE MORETON LIGHTHOUSE Lat: -27.03 Lon: 153.47 Height: 99.9 m
Data from the previous 72 hours. | See also: Recent months at Cape Moreton
Date/Time
EST
Temp

°C
Wind Pressure Rain
since 9am
mm
Weather Cloud Vis
km
Sea
Height
m
Swell
Dir
 
Speed
knots
Gust
knots
hPa Trend Height
m
Period
s
Dir
25/03:30am 16.6 W 5 5 1024.3 - - - - - - - - -
25/03:00am 16.8 WSW 5 6 1024.0 - - - - - - - - -
25/02:30am 17.9 N 5 7 1024.4 - - - - - - - - -
25/02:00am 18.0 N 7 9 1024.3 - - - - - - - - -
25/01:30am 17.8 N 7 9 1024.5 - - - - - - - - -
25/01:00am 17.9 N 8 9 1024.3 - - - - - - - - -
25/12:30am 17.8 NE 7 8 1024.6 - - - - - - - - -
25/12:00am 17.9 NNE 7 9 1024.4 - - - - - - - - -
 
Date/Time
EST
Temp

°C
Wind Pressure Rain
since 9am
mm
Weather Cloud Vis
km
Sea
Height
m
Swell
Dir
 
Speed
knots
Gust
knots
hPa Trend Height
m
Period
s
Dir
24/11:30pm 18.0 NE 7 9 1024.6 - - - - - - - - -
24/11:00pm 18.0 NE 8 10 1024.4 - - - - - - - - -
24/10:30pm 18.1 NE 8 9 1024.7 - - - - - - - - -
24/10:00pm 18.3 NE 9 11 1024.7 - - - - - - - - -
24/09:30pm 18.3 NE 9 11 1024.9 - - - - - - - - -
24/09:00pm 18.4 ENE 9 13 1024.5 - - - - - - - - -
24/08:30pm 18.3 ENE 11 13 1024.4 - - - - - - - - -
24/08:00pm 18.3 ENE 11 14 1023.9 - - - - - - - - -
24/07:30pm 18.2 ENE 11 13 1023.6 - - - - - - - - -
24/07:00pm 18.2 ENE 13 16 1023.0 - - - - - - - - -
24/06:30pm 17.9 E 12 13 1022.8 - - - - - - - - -
24/06:00pm 17.9 E 11 14 1022.5 - - - - - - - - -
24/05:30pm 18.1 E 11 14 1022.3 - - - - - - - - -
24/05:00pm 18.1 E 11 13 1021.9 - - - - - - - - -
24/04:30pm 18.5 ENE 11 13 1021.9 - - - - - - - - -
24/04:00pm 18.3 E 8 10 1021.7 - - - - - - - - -
24/03:30pm 18.6 E 9 11 1021.7 - - - - - - - - -
24/03:00pm 18.6 E 9 10 1021.6 - - - - - - - - -
24/02:30pm 19.5 ESE 9 11 1021.7 - - - - - - - - -
24/02:00pm 19.9 E 9 11 1021.6 - - - - - - - - -
24/01:30pm 19.8 E 11 13 1021.6 - - - - - - - - -
24/01:00pm 20.3 ESE 11 13 1021.7 - - - - - - - - -
24/12:30pm 20.9 E 10 13 1022.2 - - - - - - - - -
24/12:00pm 20.5 E 12 15 1022.2 - - - - - - - - -
24/11:30am 20.7 E 11 15 1022.6 - - - - - - - - -
24/11:00am 20.8 ESE 11 13 1023.1 - - - - - - - - -
24/10:30am 21.1 E 9 11 1023.6 - - - - - - - - -
24/10:00am 20.4 NE 10 12 1022.9 - - - - - - - - -
24/09:30am 19.3 SSE 7 9 1023.2 - - - - - - - - -
24/09:00am 18.3 SSE 7 10 1023.0 - - - - - - - - -
24/08:30am 17.3 S 7 9 1022.8 - - - - - - - - -
24/08:00am 16.0 S 8 10 1022.6 - - - - - - - - -
24/07:30am 15.3 S 8 10 1022.8 - - - - - - - - -
24/07:00am 15.6 S 9 10 1022.2 - - - - - - - - -
24/06:30am 15.4 S 8 9 1022.0 - - - - - - - - -
24/06:00am 15.7 S 8 9 1021.6 - - - - - - - - -
24/05:30am 15.5 S 8 10 1021.5 - - - - - - - - -
24/05:00am 17.0 ESE 8 11 1021.1 - - - - - - - - -
24/04:30am 17.1 E 10 11 1020.9 - - - - - - - - -
24/04:00am 17.0 ESE 10 12 1020.7 - - - - - - - - -
24/03:30am 17.0 ESE 10 13 1021.0 - - - - - - - - -
24/03:00am 17.1 ESE 11 15 1021.1 - - - - - - - - -
24/02:30am 17.2 ESE 12 14 1021.1 - - - - - - - - -
24/02:00am 17.3 ESE 12 14 1021.1 - - - - - - - - -
24/01:30am 17.2 ESE 13 16 1021.3 - - - - - - - - -
24/01:00am 17.3 ESE 15 18 1021.1 - - - - - - - - -
24/12:30am 17.3 ESE 15 18 1021.3 - - - - - - - - -
24/12:00am 17.2 ESE 16 19 1021.1 - - - - - - - - -
 
Date/Time
EST
Temp

°C
Wind Pressure Rain
since 9am
mm
Weather Cloud Vis
km
Sea
Height
m
Swell
Dir
 
Speed
knots
Gust
knots
hPa Trend Height
m
Period
s
Dir
23/11:30pm 17.2 ESE 13 16 1022.0 - - - - - - - - -
23/11:00pm 17.0 ESE 13 17 1021.9 - - - - - - - - -
23/10:30pm 17.0 ESE 15 19 1021.9 - - - - - - - - -
23/10:00pm 17.1 ESE 15 18 1022.0 - - - - - - - - -
23/09:30pm 16.9 ESE 17 20 1022.1 - - - - - - - - -
23/09:00pm 17.0 ESE 19 22 1021.7 - - - - - - - - -
23/08:30pm 17.0 ESE 19 23 1021.3 - - - - - - - - -
23/08:00pm 17.2 ESE 19 23 1021.3 - - - - - - - - -
23/07:30pm 17.2 ESE 19 23 1021.3 - - - - - - - - -
23/07:00pm 17.2 SE 19 23 1020.9 - - - - - - - - -
23/06:30pm 17.1 SE 17 22 1021.3 - - - - - - - - -
23/06:00pm 17.1 SE 17 21 1020.8 - - - - - - - - -
23/05:30pm 17.1 SE 17 20 1020.7 - - - - - - - - -
23/05:00pm 17.1 SE 17 20 1020.4 - - - - - - - - -
23/04:30pm 17.4 SE 16 20 1020.3 - - - - - - - - -
23/04:00pm 17.6 SE 15 19 1020.4 - - - - - - - - -
23/03:30pm 17.5 SSE 15 19 1020.6 - - - - - - - - -
23/03:00pm 17.5 SSE 15 18 1020.5 - - - - - - - - -
23/02:30pm 17.7 SSE 14 19 1020.7 - - - - - - - - -
23/02:00pm 18.0 SSE 15 19 1020.4 - - - - - - - - -
23/01:30pm 18.1 SSE 13 18 1020.5 - - - - - - - - -
23/01:00pm 17.6 SSE 13 18 1020.5 - - - - - - - - -
23/12:30pm 17.7 S 13 17 1021.0 - - - - - - - - -
23/12:00pm 17.8 S 13 19 1021.5 - - - - - - - - -
23/11:30am 17.6 S 12 16 1022.1 - - - - - - - - -
23/11:00am 17.4 S 13 17 1022.3 - - - - - - - - -
23/10:30am 17.4 S 12 17 1022.9 - - - - - - - - -
23/10:00am 17.0 S 13 18 1023.0 - - - - - - - - -
23/09:30am 16.4 S 13 17 1023.3 - - - - - - - - -
23/09:00am 16.0 S 12 16 1022.9 - - - - - - - - -
23/08:30am 15.4 SSW 13 18 1022.7 - - - - - - - - -
23/08:00am 14.8 SSW 13 19 1022.2 - - - - - - - - -
23/07:30am 13.9 SSW 14 17 1021.9 - - - - - - - - -
23/07:00am 13.7 SSW 15 18 1021.5 - - - - - - - - -
23/06:30am 13.6 SSW 14 18 1021.2 - - - - - - - - -
23/06:00am 13.8 SSW 14 18 1020.5 - - - - - - - - -
23/05:30am 14.1 SSW 14 18 1020.4 - - - - - - - - -
23/05:00am 14.1 SSW 14 18 1020.0 - - - - - - - - -
23/04:30am 14.2 SSW 15 18 1019.9 - - - - - - - - -
23/04:00am 14.0 SSW 13 17 1019.7 - - - - - - - - -
23/03:30am 13.5 SSW 12 16 1020.1 - - - - - - - - -
23/03:00am 13.7 SSW 13 16 1020.2 - - - - - - - - -
23/02:30am 13.7 SSW 12 16 1020.6 - - - - - - - - -
23/02:00am 14.9 SSW 9 11 1020.5 - - - - - - - - -
23/01:30am 16.4 ESE 14 17 1020.4 - - - - - - - - -
23/01:00am 16.5 SE 16 20 1020.2 - - - - - - - - -
23/12:30am 16.5 SSE 15 19 1020.7 - - - - - - - - -
23/12:00am 16.5 SE 16 18 1020.7 - - - - - - - - -
 
Date/Time
EST
Temp

°C
Wind Pressure Rain
since 9am
mm
Weather Cloud Vis
km
Sea
Height
m
Swell
Dir
 
Speed
knots
Gust
knots
hPa Trend Height
m
Period
s
Dir
22/11:30pm 17.0 SE 17 21 1020.7 - - - - - - - - -
22/11:00pm 16.7 SE 20 23 1020.7 - - - - - - - - -
22/10:30pm 17.0 SE 16 20 1021.1 - - - - - - - - -
22/10:00pm 17.1 SE 17 22 1021.3 - - - - - - - - -
22/09:30pm 17.1 SE 18 21 1021.2 - - - - - - - - -
22/09:00pm 17.1 SE 18 21 1021.0 - - - - - - - - -
22/08:30pm 17.1 SE 18 21 1021.0 - - - - - - - - -
22/08:00pm 16.9 SE 16 19 1020.9 - - - - - - - - -
22/07:30pm 16.6 SE 16 21 1020.9 - - - - - - - - -
22/07:00pm 16.7 SE 17 21 1020.6 - - - - - - - - -
22/06:30pm 15.3 ESE 20 25 1020.3 - - - - - - - - -
22/06:00pm 17.4 SE 16 20 1020.1 - - - - - - - - -
22/05:30pm 17.3 SE 14 17 1019.9 - - - - - - - - -
22/05:00pm 17.4 ESE 14 17 1019.5 - - - - - - - - -
22/04:30pm 17.6 SE 16 19 1019.2 - - - - - - - - -
22/04:00pm 17.8 ESE 15 17 1019.0 - - - - - - - - -
22/03:30pm 18.0 SE 14 17 1019.0 - - - - - - - - -
22/03:00pm 18.6 SE 9 11 1018.9 - - - - - - - - -
22/02:30pm 18.4 SE 10 11 1019.1 - - - - - - - - -
22/02:00pm 18.9 SE 10 12 1019.1 - - - - - - - - -
22/01:30pm 19.1 SSE 9 11 1019.4 - - - - - - - - -
22/01:00pm 19.2 SSE 11 14 1019.6 - - - - - - - - -
22/12:30pm 18.9 SE 13 15 1020.0 - - - - - - - - -
22/12:00pm 19.1 SSE 13 17 1020.4 - - - - - - - - -
22/11:30am 18.5 SSE 12 17 1021.0 - - - - - - - - -
22/11:00am 17.6 S 11 15 1021.4 - - - - - - - - -
22/10:30am 18.9 S 9 13 1021.9 - - - - - - - - -
22/10:00am 18.4 S 10 14 1022.0 - - - - - - - - -
22/09:30am 17.5 S 10 13 1022.3 - - - - - - - - -
22/09:00am 17.0 S 9 13 1022.2 - - - - - - - - -
22/08:30am 16.5 SSW 10 13 1022.0 - - - - - - - - -
22/08:00am 16.0 SSW 9 12 1021.8 - - - - - - - - -
22/07:30am 15.4 S 9 11 1021.6 - - - - - - - - -
22/07:00am 14.6 SSW 10 12 1021.1 - - - - - - - - -
22/06:30am 14.6 SSW 9 11 1021.1 - - - - - - - - -
22/06:00am 15.2 SSW 8 10 1020.8 - - - - - - - - -
22/05:30am 15.2 SSW 8 9 1020.7 - - - - - - - - -
22/05:00am 14.9 S 8 10 1020.2 - - - - - - - - -
22/04:30am 14.2 SSW 9 11 1020.2 - - - - - - - - -
22/04:00am 14.7 S 9 10 1020.2 - - - - - - - - -

Other Formats:

Comma delimited format used in spreadsheet applications
http://www.bom.gov.au/fwo/IDQ60701/IDQ60701.94594.axf

JavaScript Object Notation format (JSON) in row-major order
http://www.bom.gov.au/fwo/IDQ60701/IDQ60701.94594.json